Time;durP1;ratioP1;P1;durP2;ratioP2;P2;SDS_P1;SDS_P2;PMS_P1;PMS_P2;Temp;Humidity;BMP_temperature;BMP_pressure;BME280_temperature;BME280_humidity;BME280_pressure;Samples;Min_cycle;Max_cycle;Signal;HPM_P1;HPM_P2
2021/10/31 00:00:44;;;;;;;23.70;18.80;;;11.80;99.90;;;;;;5053821;28;20483;-67
2021/10/31 00:03:10;;;;;;;27.90;18.65;;;11.80;99.90;;;;;;5055724;28;20427;-66
2021/10/31 00:05:35;;;;;;;23.48;18.30;;;11.70;99.90;;;;;;5056032;28;20060;-66
2021/10/31 00:08:01;;;;;;;24.20;18.50;;;11.70;99.90;;;;;;5086461;28;20032;-67
2021/10/31 00:10:27;;;;;;;37.28;19.95;;;11.60;99.90;;;;;;5055109;28;20090;-67
2021/10/31 00:12:52;;;;;;;26.20;20.38;;;11.60;99.90;;;;;;5054457;28;20040;-67
2021/10/31 00:15:18;;;;;;;28.50;20.27;;;11.60;99.90;;;;;;5053034;28;20044;-67
2021/10/31 00:17:43;;;;;;;29.30;20.30;;;11.60;99.90;;;;;;5056176;28;20037;-67
2021/10/31 00:20:09;;;;;;;25.67;21.25;;;11.50;99.90;;;;;;5054732;28;20041;-67
2021/10/31 00:22:35;;;;;;;29.30;21.25;;;11.50;99.90;;;;;;5088746;28;20039;-67
2021/10/31 00:25:01;;;;;;;33.35;21.73;;;11.50;99.90;;;;;;5054300;28;20040;-67
2021/10/31 00:27:27;;;;;;;32.40;21.38;;;11.50;99.90;;;;;;5054239;28;20090;-67
2021/10/31 00:29:52;;;;;;;30.15;21.23;;;11.50;99.90;;;;;;5057172;28;20849;-67
2021/10/31 00:32:18;;;;;;;28.52;20.85;;;11.50;99.90;;;;;;5086031;28;20037;-66
2021/10/31 00:34:44;;;;;;;29.38;22.35;;;11.40;99.90;;;;;;5087078;28;20071;-66
2021/10/31 00:37:10;;;;;;;35.63;23.90;;;11.50;99.90;;;;;;5058304;28;20043;-66
2021/10/31 00:39:35;;;;;;;31.98;23.05;;;11.40;99.90;;;;;;5057334;28;20119;-66
2021/10/31 00:42:01;;;;;;;35.03;23.23;;;11.40;99.90;;;;;;5055787;28;20786;-66
2021/10/31 00:44:27;;;;;;;42.78;24.77;;;11.50;99.90;;;;;;5055196;28;20386;-67
2021/10/31 00:46:52;;;;;;;31.02;22.38;;;11.40;99.90;;;;;;5055194;28;20059;-67
2021/10/31 00:49:19;;;;;;;29.67;24.10;;;11.70;99.90;;;;;;5055631;28;20044;-67
2021/10/31 00:51:46;;;;;;;37.42;26.48;;;11.40;99.90;;;;;;5055141;28;20041;-67
2021/10/31 00:54:12;;;;;;;33.45;25.40;;;11.40;99.90;;;;;;5056040;28;20037;-67
2021/10/31 00:56:37;;;;;;;36.38;25.65;;;11.40;99.90;;;;;;5052033;28;20067;-67
2021/10/31 00:59:03;;;;;;;38.00;25.85;;;11.50;99.90;;;;;;5052083;28;20475;-67
2021/10/31 01:01:30;;;;;;;35.00;24.95;;;11.40;99.90;;;;;;5053641;28;20065;-67
2021/10/31 01:03:56;;;;;;;33.35;26.17;;;11.40;99.90;;;;;;5060118;28;20044;-67
2021/10/31 01:06:44;;;;;;;34.42;25.45;;;11.40;99.90;;;;;;5060267;28;20242;-67
2021/10/31 01:09:36;;;;;;;40.17;25.90;;;11.40;99.90;;;;;;5061481;28;20106;-67
2021/10/31 01:12:26;;;;;;;38.72;27.17;;;11.40;99.90;;;;;;5093238;27;20055;-67
2021/10/31 01:15:14;;;;;;;29.10;24.45;;;11.40;99.90;;;;;;5059352;28;20051;-67
2021/10/31 01:18:12;;;;;;;36.10;24.77;;;11.30;99.90;;;;;;5058642;28;20378;-67
2021/10/31 01:20:40;;;;;;;30.70;23.83;;;11.30;99.90;;;;;;5069343;28;20097;-66
2021/10/31 01:23:20;;;;;;;33.78;22.73;;;11.30;99.90;;;;;;5059143;28;20077;-67
2021/10/31 01:26:23;;;;;;;35.28;23.40;;;11.30;99.90;;;;;;5059127;28;20036;-66
2021/10/31 01:28:53;;;;;;;30.20;22.90;;;11.20;99.90;;;;;;5056505;28;20045;-66
2021/10/31 01:31:49;;;;;;;29.48;23.30;;;11.20;99.90;;;;;;5056750;28;20048;-66
2021/10/31 01:34:34;;;;;;;40.47;24.75;;;11.10;99.90;;;;;;5089714;28;20050;-66
2021/10/31 01:37:08;;;;;;;32.67;22.58;;;11.10;99.90;;;;;;5058197;28;20037;-66
2021/10/31 01:39:44;;;;;;;28.10;22.55;;;11.10;99.90;;;;;;5058000;28;20047;-67
2021/10/31 01:42:10;;;;;;;26.10;21.70;;;11.00;99.90;;;;;;5062860;28;20052;-66
2021/10/31 01:45:02;;;;;;;31.08;23.80;;;11.00;99.90;;;;;;5058683;28;20509;-67
2021/10/31 01:47:43;;;;;;;30.08;23.08;;;11.00;99.90;;;;;;5057735;28;20052;-67
2021/10/31 01:50:39;;;;;;;33.75;23.42;;;11.00;99.90;;;;;;5059081;28;20040;-67
2021/10/31 01:53:09;;;;;;;34.03;23.00;;;10.90;99.90;;;;;;5089912;27;20079;-67
2021/10/31 01:55:43;;;;;;;28.77;23.52;;;10.90;99.90;;;;;;5056595;28;20047;-66
2021/10/31 01:58:11;;;;;;;41.28;26.50;;;10.90;99.90;;;;;;5057087;28;20052;-67
2021/10/31 02:00:40;;;;;;;26.85;22.88;;;10.80;99.90;;;;;;5055815;28;20041;-67
2021/10/31 02:03:07;;;;;;;34.67;23.45;;;10.80;99.90;;;;;;5058633;28;20029;-67
2021/10/31 02:05:37;;;;;;;32.75;22.80;;;10.80;99.90;;;;;;5037561;28;20479;-66
2021/10/31 02:08:06;;;;;;;30.33;23.08;;;10.70;99.90;;;;;;5057604;28;20047;-67
2021/10/31 02:10:32;;;;;;;30.77;23.75;;;10.70;99.90;;;;;;5060262;28;20059;-67
2021/10/31 02:12:59;;;;;;;30.30;22.08;;;10.70;99.90;;;;;;5056718;28;20086;-66
2021/10/31 02:15:26;;;;;;;34.70;23.58;;;10.70;99.90;;;;;;5059880;28;20033;-67
2021/10/31 02:17:54;;;;;;;30.23;24.05;;;10.70;99.90;;;;;;5057786;28;20058;-67
2021/10/31 02:20:22;;;;;;;34.60;23.92;;;10.60;99.90;;;;;;5057257;28;20044;-66
2021/10/31 02:22:56;;;;;;;35.85;24.83;;;10.60;99.90;;;;;;5043381;28;20136;-66
2021/10/31 02:25:23;;;;;;;35.55;25.00;;;10.50;99.90;;;;;;5058341;28;20167;-66
2021/10/31 02:27:49;;;;;;;35.05;24.67;;;10.50;99.90;;;;;;5091524;28;20044;-67
2021/10/31 02:30:16;;;;;;;31.00;22.63;;;10.50;99.90;;;;;;5061023;28;20083;-67
2021/10/31 02:32:41;;;;;;;30.65;24.38;;;10.40;99.90;;;;;;5064541;28;20082;-67
2021/10/31 02:35:11;;;;;;;34.10;25.10;;;10.40;99.90;;;;;;5098354;27;20040;-67
2021/10/31 02:37:38;;;;;;;32.63;23.27;;;10.40;99.90;;;;;;5067165;28;20041;-66
2021/10/31 02:40:05;;;;;;;45.28;26.65;;;10.30;99.90;;;;;;5063695;28;20118;-66
2021/10/31 02:42:30;;;;;;;35.17;25.17;;;10.40;99.90;;;;;;5062518;28;20108;-66
2021/10/31 02:44:56;;;;;;;32.03;24.73;;;10.30;99.90;;;;;;5046516;28;20587;-66
2021/10/31 02:47:44;;;;;;;34.03;24.73;;;10.30;99.90;;;;;;5064966;28;20364;-66
2021/10/31 02:50:17;;;;;;;38.30;26.50;;;10.30;99.90;;;;;;5033224;28;20059;-66
2021/10/31 02:53:11;;;;;;;34.35;25.88;;;10.20;99.90;;;;;;5095856;27;20059;-66
2021/10/31 02:56:05;;;;;;;34.53;25.17;;;10.20;99.90;;;;;;5065478;28;20048;-67
2021/10/31 02:59:02;;;;;;;37.25;26.35;;;10.20;99.90;;;;;;5062489;28;20113;-67
2021/10/31 03:01:29;;;;;;;38.83;26.52;;;10.20;99.90;;;;;;4998080;28;20051;-66
2021/10/31 03:03:57;;;;;;;35.92;25.90;;;10.10;99.90;;;;;;5063313;28;20135;-66
2021/10/31 03:06:23;;;;;;;30.85;25.02;;;10.10;99.90;;;;;;5065573;28;20079;-66
2021/10/31 03:08:50;;;;;;;37.75;25.65;;;10.10;99.90;;;;;;5062684;28;20068;-66
2021/10/31 03:11:15;;;;;;;39.28;26.88;;;10.10;99.90;;;;;;5064261;28;20036;-66
2021/10/31 03:13:41;;;;;;;27.88;23.98;;;10.10;99.90;;;;;;5062776;28;20094;-66
2021/10/31 03:16:08;;;;;;;37.05;27.23;;;10.00;99.90;;;;;;5063068;28;20071;-66
2021/10/31 03:18:35;;;;;;;30.90;24.25;;;10.00;99.90;;;;;;5060646;28;20081;-66
2021/10/31 03:21:00;;;;;;;37.20;26.35;;;10.00;99.90;;;;;;5068443;28;20054;-66
2021/10/31 03:23:26;;;;;;;37.47;26.85;;;10.00;99.90;;;;;;5066653;28;20028;-66
2021/10/31 03:25:52;;;;;;;32.35;23.45;;;10.00;99.90;;;;;;5061678;28;20120;-66
2021/10/31 03:28:18;;;;;;;41.53;26.83;;;10.00;99.90;;;;;;5064379;28;20037;-66
2021/10/31 03:30:44;;;;;;;33.47;23.65;;;9.90;99.90;;;;;;5063400;28;20102;-66
2021/10/31 03:33:10;;;;;;;41.80;27.48;;;9.90;99.90;;;;;;5065110;28;20044;-66
2021/10/31 03:35:36;;;;;;;35.40;26.45;;;9.90;99.90;;;;;;5048133;28;20482;-66
2021/10/31 03:38:02;;;;;;;37.65;26.67;;;9.90;99.90;;;;;;5061764;28;20047;-66
2021/10/31 03:40:28;;;;;;;35.00;26.20;;;9.90;99.90;;;;;;5064276;28;20114;-66
2021/10/31 03:42:54;;;;;;;32.15;25.48;;;9.90;99.90;;;;;;5063728;28;20037;-66
2021/10/31 03:45:19;;;;;;;37.40;26.90;;;9.90;99.90;;;;;;5064261;28;20079;-66
2021/10/31 03:47:48;;;;;;;37.17;28.00;;;9.80;99.90;;;;;;5063389;28;20044;-66
2021/10/31 03:50:19;;;;;;;43.63;28.85;;;9.80;99.90;;;;;;5061155;28;20040;-66
2021/10/31 03:52:45;;;;;;;44.22;30.50;;;9.80;99.90;;;;;;5059556;28;20064;-66
2021/10/31 03:55:13;;;;;;;39.42;29.38;;;9.80;99.90;;;;;;5062442;28;20075;-66
2021/10/31 03:57:39;;;;;;;43.30;30.98;;;9.80;99.90;;;;;;5066624;28;20048;-66
2021/10/31 04:00:07;;;;;;;44.80;31.38;;;9.80;99.90;;;;;;5063314;28;20094;-66
2021/10/31 04:02:33;;;;;;;50.00;32.75;;;9.80;99.90;;;;;;5060557;28;20036;-66
2021/10/31 04:04:59;;;;;;;50.70;35.47;;;9.90;99.90;;;;;;5062624;28;20509;-66
2021/10/31 04:07:24;;;;;;;56.72;35.63;;;9.90;99.90;;;;;;5067125;28;20029;-66
2021/10/31 04:09:50;;;;;;;58.78;37.25;;;9.90;99.90;;;;;;5067195;28;20033;-66
2021/10/31 04:12:16;;;;;;;56.20;37.78;;;9.90;99.90;;;;;;5065381;28;20375;-66
2021/10/31 04:14:42;;;;;;;52.80;34.63;;;9.90;99.90;;;;;;5064774;28;20056;-66
2021/10/31 04:17:08;;;;;;;62.60;36.05;;;9.90;99.90;;;;;;5062567;28;20045;-66
2021/10/31 04:19:33;;;;;;;56.15;37.20;;;9.90;99.90;;;;;;5062925;28;20055;-66
2021/10/31 04:21:59;;;;;;;55.72;38.38;;;9.90;99.90;;;;;;5062452;28;20041;-66
2021/10/31 04:24:25;;;;;;;58.67;37.63;;;9.90;99.90;;;;;;5062973;28;20045;-66
2021/10/31 04:26:51;;;;;;;50.53;35.10;;;9.90;99.90;;;;;;5061876;28;20055;-66
2021/10/31 04:29:17;;;;;;;53.95;36.88;;;9.90;99.90;;;;;;5062775;28;20109;-66
2021/10/31 04:31:42;;;;;;;52.53;36.83;;;9.90;99.90;;;;;;5062111;28;20072;-67
2021/10/31 04:34:08;;;;;;;59.33;37.65;;;9.90;99.90;;;;;;5064076;28;20421;-67
2021/10/31 04:36:34;;;;;;;67.38;40.08;;;9.90;99.90;;;;;;5098714;27;20149;-67
2021/10/31 04:38:59;;;;;;;55.53;36.63;;;9.90;99.90;;;;;;5068050;28;20044;-67
2021/10/31 04:41:28;;;;;;;63.08;37.72;;;10.00;99.90;;;;;;5067868;28;20047;-66
2021/10/31 04:43:54;;;;;;;65.55;38.60;;;10.00;99.90;;;;;;5065190;28;20530;-66
2021/10/31 04:46:19;;;;;;;59.83;38.70;;;10.00;99.90;;;;;;5063663;28;20245;-66
2021/10/31 04:48:45;;;;;;;64.30;39.53;;;10.00;99.90;;;;;;5096597;27;20114;-66
2021/10/31 04:51:11;;;;;;;63.53;39.22;;;10.10;99.90;;;;;;5046232;28;20056;-66
2021/10/31 04:53:37;;;;;;;61.83;39.85;;;10.10;99.90;;;;;;5063830;28;20425;-66
2021/10/31 04:56:03;;;;;;;55.33;37.38;;;10.10;99.90;;;;;;5064459;28;20049;-67
2021/10/31 04:58:29;;;;;;;60.17;37.72;;;10.20;99.90;;;;;;5099050;27;20040;-67
2021/10/31 05:00:54;;;;;;;64.50;39.17;;;10.10;99.90;;;;;;5097800;27;20036;-67
2021/10/31 05:03:20;;;;;;;64.15;38.08;;;10.20;99.90;;;;;;5067690;28;20044;-66
2021/10/31 05:05:46;;;;;;;61.80;38.22;;;10.20;99.90;;;;;;5099248;27;20048;-66
2021/10/31 05:08:11;;;;;;;61.92;36.25;;;10.20;99.90;;;;;;5063853;28;20048;-66
2021/10/31 05:10:37;;;;;;;58.75;35.80;;;10.20;99.90;;;;;;5066178;28;20399;-66
2021/10/31 05:13:03;;;;;;;63.35;36.88;;;10.20;99.90;;;;;;5064701;28;20032;-66
2021/10/31 05:15:29;;;;;;;52.15;34.38;;;10.20;99.90;;;;;;5064652;28;20131;-66
2021/10/31 05:17:55;;;;;;;49.83;33.03;;;10.20;99.90;;;;;;5058609;28;20037;-66
2021/10/31 05:20:22;;;;;;;58.10;35.03;;;10.20;99.90;;;;;;5056551;28;20083;-66
2021/10/31 05:22:47;;;;;;;64.93;37.10;;;10.10;99.90;;;;;;5056679;28;20186;-66
2021/10/31 05:25:13;;;;;;;51.15;33.03;;;10.20;99.90;;;;;;5059003;28;20132;-66
2021/10/31 05:27:39;;;;;;;61.40;35.88;;;10.20;99.90;;;;;;5090845;27;20048;-67
2021/10/31 05:30:07;;;;;;;55.38;36.40;;;10.20;99.90;;;;;;5087688;28;20036;-67
2021/10/31 05:32:35;;;;;;;55.20;33.72;;;10.20;99.90;;;;;;5056791;28;20044;-66
2021/10/31 05:35:01;;;;;;;52.63;33.05;;;10.20;99.90;;;;;;5068700;28;20086;-66
2021/10/31 05:37:34;;;;;;;45.78;31.15;;;10.20;99.90;;;;;;5063802;28;20540;-66
2021/10/31 05:40:01;;;;;;;52.63;32.80;;;10.20;99.90;;;;;;5064007;28;20098;-66
2021/10/31 05:42:27;;;;;;;55.33;33.75;;;10.20;99.90;;;;;;5062385;28;20037;-66
2021/10/31 05:44:52;;;;;;;58.05;34.58;;;10.20;99.90;;;;;;5062741;28;20044;-66
2021/10/31 05:47:18;;;;;;;60.85;33.80;;;10.20;99.90;;;;;;5092818;27;20056;-67
2021/10/31 05:49:44;;;;;;;51.00;31.15;;;10.30;99.90;;;;;;5062161;28;20064;-67
2021/10/31 05:52:10;;;;;;;46.50;31.55;;;10.20;99.90;;;;;;5059943;28;20055;-67
2021/10/31 05:54:36;;;;;;;47.90;30.00;;;10.30;99.90;;;;;;5063271;28;20049;-67
2021/10/31 05:57:02;;;;;;;44.65;30.65;;;10.30;99.90;;;;;;5059220;28;20033;-67
2021/10/31 05:59:27;;;;;;;51.05;30.65;;;10.30;99.90;;;;;;5091423;28;20048;-67
2021/10/31 06:01:53;;;;;;;43.40;29.02;;;10.30;99.90;;;;;;5059099;28;20040;-67
2021/10/31 06:04:19;;;;;;;43.17;30.13;;;10.30;99.90;;;;;;5061103;28;22387;-67
2021/10/31 06:06:46;;;;;;;39.47;27.42;;;10.30;99.90;;;;;;5058675;28;20047;-67
2021/10/31 06:09:12;;;;;;;40.45;28.95;;;10.30;99.90;;;;;;5088871;27;20056;-67
2021/10/31 06:11:38;;;;;;;42.17;28.88;;;10.30;99.90;;;;;;5088125;27;20059;-67
2021/10/31 06:14:04;;;;;;;46.80;29.52;;;10.40;99.90;;;;;;5052210;28;20037;-67
2021/10/31 06:16:30;;;;;;;37.88;28.48;;;10.40;99.90;;;;;;5060287;28;20043;-67
2021/10/31 06:18:56;;;;;;;39.90;27.92;;;10.40;99.90;;;;;;5057342;28;20043;-66
2021/10/31 06:21:21;;;;;;;38.58;26.83;;;10.40;99.90;;;;;;5061592;28;20538;-66
2021/10/31 06:23:47;;;;;;;35.03;26.65;;;10.40;99.90;;;;;;5057530;28;20044;-66
2021/10/31 06:26:12;;;;;;;40.03;28.77;;;10.40;99.90;;;;;;5058609;28;20051;-66
2021/10/31 06:28:38;;;;;;;38.42;26.95;;;10.40;99.90;;;;;;5055860;28;20052;-67
2021/10/31 06:31:03;;;;;;;38.53;26.75;;;10.40;99.90;;;;;;5057893;28;20044;-67
2021/10/31 06:33:29;;;;;;;33.33;26.40;;;10.40;99.90;;;;;;5052478;28;20093;-67
2021/10/31 06:35:55;;;;;;;39.67;28.33;;;10.50;99.90;;;;;;5090108;27;20495;-67
2021/10/31 06:38:21;;;;;;;36.40;27.45;;;10.40;99.90;;;;;;5055043;28;20044;-67
2021/10/31 06:40:47;;;;;;;33.40;25.80;;;10.40;99.90;;;;;;5057131;28;20029;-67
2021/10/31 06:43:13;;;;;;;33.03;26.63;;;10.40;99.90;;;;;;5056538;28;20037;-67
2021/10/31 06:45:38;;;;;;;40.60;28.00;;;10.50;99.90;;;;;;5054993;28;20044;-67
2021/10/31 06:48:05;;;;;;;33.45;27.15;;;10.50;99.90;;;;;;5057611;28;20045;-67
2021/10/31 06:50:31;;;;;;;34.75;27.55;;;10.50;99.90;;;;;;5055482;28;20048;-67
2021/10/31 06:52:57;;;;;;;30.70;26.35;;;10.50;99.90;;;;;;5056393;28;20045;-67
2021/10/31 06:55:22;;;;;;;33.13;26.30;;;10.40;99.90;;;;;;5054848;28;20049;-67
2021/10/31 06:57:48;;;;;;;40.47;26.58;;;10.50;99.90;;;;;;5057068;28;20029;-67
2021/10/31 07:00:14;;;;;;;38.95;27.77;;;10.50;99.90;;;;;;5057366;28;20087;-67
2021/10/31 07:02:40;;;;;;;35.70;25.55;;;10.50;99.90;;;;;;5062370;28;20032;-67
2021/10/31 07:05:07;;;;;;;36.95;25.63;;;10.40;99.90;;;;;;5057655;28;20088;-67
2021/10/31 07:07:32;;;;;;;36.75;26.65;;;10.40;99.90;;;;;;5058721;28;20040;-67
2021/10/31 07:09:58;;;;;;;37.25;25.48;;;10.40;99.90;;;;;;5063315;28;20040;-67
2021/10/31 07:12:24;;;;;;;36.42;25.80;;;10.40;99.90;;;;;;5058504;28;20455;-67
2021/10/31 07:14:50;;;;;;;29.92;24.50;;;10.40;99.90;;;;;;5062893;28;20068;-67
2021/10/31 07:17:16;;;;;;;30.15;23.02;;;10.40;99.90;;;;;;5057182;28;20033;-67
2021/10/31 07:19:41;;;;;;;39.75;25.88;;;10.40;99.90;;;;;;5057733;28;20045;-67
2021/10/31 07:22:07;;;;;;;30.38;24.17;;;10.50;99.90;;;;;;5058075;28;20473;-67
2021/10/31 07:24:33;;;;;;;31.10;24.67;;;10.50;99.90;;;;;;5058587;28;20082;-66
2021/10/31 07:26:58;;;;;;;31.13;24.15;;;10.50;99.90;;;;;;5056285;28;20041;-66
2021/10/31 07:29:24;;;;;;;30.85;24.70;;;10.50;99.90;;;;;;5056415;28;20037;-67
2021/10/31 07:31:50;;;;;;;31.52;24.42;;;10.50;99.90;;;;;;5054603;28;20098;-67
2021/10/31 07:34:16;;;;;;;28.20;23.70;;;10.60;99.90;;;;;;5053705;28;20059;-67
2021/10/31 07:36:43;;;;;;;31.35;22.75;;;10.60;99.90;;;;;;5057733;28;20594;-67
2021/10/31 07:39:09;;;;;;;37.92;26.23;;;10.60;99.90;;;;;;5057138;28;20657;-67
2021/10/31 07:41:35;;;;;;;26.55;23.85;;;10.60;99.90;;;;;;5086309;28;20860;-67
2021/10/31 07:44:01;;;;;;;26.23;23.33;;;10.60;99.90;;;;;;5086789;28;20052;-67
2021/10/31 07:46:27;;;;;;;33.10;23.73;;;10.60;99.90;;;;;;5059344;28;20032;-67
2021/10/31 07:48:53;;;;;;;25.45;22.55;;;10.60;99.90;;;;;;5057040;28;20037;-67
2021/10/31 07:51:18;;;;;;;30.48;24.50;;;10.60;99.90;;;;;;5059162;28;20080;-66
2021/10/31 07:53:44;;;;;;;28.13;23.48;;;10.70;99.90;;;;;;5049773;28;20040;-67
2021/10/31 07:56:13;;;;;;;25.83;23.02;;;10.70;99.90;;;;;;5051584;28;20051;-67
2021/10/31 07:58:42;;;;;;;28.70;23.00;;;10.70;99.90;;;;;;5050665;28;20079;-67
2021/10/31 08:01:10;;;;;;;24.73;22.10;;;10.80;99.90;;;;;;5057131;28;20032;-67
2021/10/31 08:03:36;;;;;;;24.02;21.60;;;10.80;99.90;;;;;;5053980;28;20045;-67
2021/10/31 08:06:01;;;;;;;25.40;22.45;;;10.80;99.90;;;;;;5055476;28;20044;-67
2021/10/31 08:08:28;;;;;;;22.63;19.58;;;10.90;99.90;;;;;;5054118;28;20483;-67
2021/10/31 08:10:54;;;;;;;23.85;21.00;;;10.90;99.90;;;;;;5072367;28;20036;-67
2021/10/31 08:13:27;;;;;;;26.38;19.08;;;11.00;99.90;;;;;;5054692;28;20602;-67
2021/10/31 08:15:54;;;;;;;21.90;18.83;;;11.10;99.90;;;;;;5053525;28;20127;-67
2021/10/31 08:18:20;;;;;;;23.33;17.77;;;11.10;99.90;;;;;;5054759;28;20097;-67
2021/10/31 08:20:47;;;;;;;20.58;18.23;;;11.20;99.90;;;;;;5053605;28;20052;-67
2021/10/31 08:23:16;;;;;;;21.02;17.67;;;11.30;99.90;;;;;;5053198;28;20052;-67
2021/10/31 08:25:43;;;;;;;21.27;17.02;;;11.20;99.90;;;;;;5055920;28;20446;-67
2021/10/31 08:28:10;;;;;;;19.00;16.73;;;11.30;99.90;;;;;;5085609;28;20078;-67
2021/10/31 08:30:36;;;;;;;18.63;16.73;;;11.30;99.90;;;;;;5056152;28;20041;-67
2021/10/31 08:33:07;;;;;;;20.63;16.17;;;11.30;99.90;;;;;;5054761;28;20047;-67
2021/10/31 08:35:36;;;;;;;18.92;17.02;;;11.40;99.90;;;;;;5086319;28;20045;-67
2021/10/31 08:38:03;;;;;;;21.52;16.60;;;11.40;99.90;;;;;;5053574;28;20036;-67
2021/10/31 08:40:29;;;;;;;18.95;16.50;;;11.30;99.90;;;;;;5054611;28;20037;-67
2021/10/31 08:42:55;;;;;;;19.08;15.70;;;11.30;99.90;;;;;;5054470;28;20068;-67
2021/10/31 08:45:22;;;;;;;19.30;15.73;;;11.40;99.90;;;;;;5054975;28;20165;-67
2021/10/31 08:47:47;;;;;;;18.55;16.27;;;11.50;99.90;;;;;;5057765;28;20037;-67
2021/10/31 08:50:13;;;;;;;16.75;14.77;;;11.60;99.90;;;;;;5052728;28;20474;-67
2021/10/31 08:52:40;;;;;;;18.75;14.68;;;11.60;99.90;;;;;;5053856;28;20048;-67
2021/10/31 08:55:06;;;;;;;15.35;13.70;;;11.70;99.90;;;;;;5055699;28;20510;-67
2021/10/31 08:57:31;;;;;;;15.23;13.63;;;11.70;99.90;;;;;;5054185;28;20052;-67
2021/10/31 08:59:58;;;;;;;14.20;12.77;;;11.80;99.90;;;;;;5058040;28;20033;-67
2021/10/31 09:02:25;;;;;;;13.75;12.40;;;11.80;99.90;;;;;;5085691;28;20482;-67
2021/10/31 09:04:51;;;;;;;14.70;12.88;;;11.90;99.90;;;;;;5053465;28;20063;-67
2021/10/31 09:07:17;;;;;;;16.42;12.45;;;12.00;99.90;;;;;;5055459;28;20036;-67
2021/10/31 09:09:43;;;;;;;13.68;12.25;;;12.00;99.90;;;;;;5053808;28;20106;-67
2021/10/31 09:12:10;;;;;;;14.77;12.35;;;12.00;99.90;;;;;;5053774;28;20112;-67
2021/10/31 09:14:36;;;;;;;12.82;11.52;;;12.00;99.90;;;;;;5052043;28;20055;-67
2021/10/31 09:17:02;;;;;;;13.98;10.77;;;12.00;99.90;;;;;;5052888;28;20040;-67
2021/10/31 09:19:28;;;;;;;12.52;11.20;;;12.10;99.90;;;;;;5054629;28;20045;-67
2021/10/31 09:21:53;;;;;;;11.88;10.63;;;12.10;99.90;;;;;;5084696;28;20562;-67
2021/10/31 09:24:20;;;;;;;12.43;11.30;;;12.00;99.90;;;;;;5056319;28;20045;-67
2021/10/31 09:26:45;;;;;;;12.00;10.82;;;12.10;99.90;;;;;;5059262;28;20045;-67
2021/10/31 09:29:11;;;;;;;11.05;10.05;;;12.10;99.90;;;;;;5059923;28;20498;-67
2021/10/31 09:31:38;;;;;;;11.68;10.27;;;12.10;99.90;;;;;;5058699;28;20047;-67
2021/10/31 09:34:05;;;;;;;12.65;11.40;;;12.10;99.90;;;;;;5062283;28;20044;-67
2021/10/31 09:36:35;;;;;;;13.27;10.07;;;12.10;99.90;;;;;;5060041;28;20039;-67
2021/10/31 09:39:04;;;;;;;12.55;10.45;;;12.10;99.90;;;;;;5059973;28;20409;-67
2021/10/31 09:41:31;;;;;;;9.82;8.80;;;12.20;99.90;;;;;;5056672;28;20041;-67
2021/10/31 09:44:10;;;;;;;11.30;9.48;;;12.20;99.90;;;;;;5056582;28;20102;-67
2021/10/31 09:46:37;;;;;;;10.07;9.10;;;12.30;99.90;;;;;;5055680;28;20048;-67
2021/10/31 09:49:04;;;;;;;9.77;8.88;;;12.40;99.90;;;;;;5057956;28;20040;-67
2021/10/31 09:51:31;;;;;;;12.55;10.07;;;12.50;99.90;;;;;;5056605;28;20140;-67
2021/10/31 09:54:00;;;;;;;10.90;8.82;;;12.50;99.90;;;;;;5058511;28;20059;-67
2021/10/31 09:56:26;;;;;;;11.10;9.00;;;12.60;99.90;;;;;;5090090;28;20041;-67
2021/10/31 09:58:57;;;;;;;9.98;7.75;;;12.70;99.90;;;;;;5057523;28;20052;-67
2021/10/31 10:02:11;;;;;;;10.35;8.30;;;12.70;99.90;;;;;;5092262;27;20082;-67
2021/10/31 10:04:50;;;;;;;8.10;7.03;;;12.70;99.90;;;;;;5056972;28;20094;-67
2021/10/31 10:07:17;;;;;;;9.93;7.57;;;12.70;99.90;;;;;;5059383;28;21412;-67
2021/10/31 10:09:54;;;;;;;8.48;7.60;;;12.80;99.90;;;;;;5041408;28;20048;-67
2021/10/31 10:12:21;;;;;;;17.60;8.60;;;12.80;99.90;;;;;;5089008;28;20135;-67
2021/10/31 10:15:09;;;;;;;8.77;7.60;;;12.90;99.90;;;;;;5058846;28;20049;-67
2021/10/31 10:17:51;;;;;;;10.52;7.35;;;12.90;99.90;;;;;;5055683;28;20035;-67
2021/10/31 10:20:19;;;;;;;8.60;7.43;;;13.00;99.90;;;;;;5059776;28;20048;-66
2021/10/31 10:22:46;;;;;;;9.20;7.10;;;13.00;99.90;;;;;;5058619;28;20037;-67
2021/10/31 10:25:12;;;;;;;7.22;6.53;;;13.10;99.90;;;;;;5057658;28;20051;-67
2021/10/31 10:27:50;;;;;;;7.32;6.35;;;13.20;99.90;;;;;;5085218;28;20118;-67
2021/10/31 10:30:20;;;;;;;10.25;6.35;;;13.30;99.90;;;;;;5055473;28;20064;-67
2021/10/31 10:32:51;;;;;;;7.95;5.80;;;13.40;99.90;;;;;;5057784;28;20088;-67
2021/10/31 10:35:19;;;;;;;8.38;5.93;;;13.50;99.90;;;;;;5054476;28;20773;-67
2021/10/31 10:37:45;;;;;;;10.82;6.25;;;13.50;99.90;;;;;;5054015;28;20407;-67
2021/10/31 10:40:19;;;;;;;8.45;6.68;;;13.60;99.90;;;;;;5055189;28;20045;-67
2021/10/31 10:42:49;;;;;;;7.85;6.18;;;13.60;99.90;;;;;;5054166;28;20037;-67
2021/10/31 10:45:30;;;;;;;7.95;6.38;;;13.60;99.90;;;;;;5055902;28;20040;-67
2021/10/31 10:47:58;;;;;;;6.95;5.80;;;13.60;99.90;;;;;;5053910;28;20041;-67
2021/10/31 10:50:34;;;;;;;8.05;5.82;;;13.60;99.90;;;;;;5056865;28;20071;-67
2021/10/31 10:53:00;;;;;;;10.30;6.88;;;13.60;99.90;;;;;;5056762;28;20040;-67
2021/10/31 10:55:33;;;;;;;9.40;6.28;;;13.70;99.90;;;;;;5054973;28;20124;-67
2021/10/31 10:58:09;;;;;;;7.13;6.38;;;13.70;99.90;;;;;;5062820;28;20048;-67
2021/10/31 11:00:37;;;;;;;7.47;6.53;;;13.70;99.90;;;;;;5055802;28;20090;-67
2021/10/31 11:03:06;;;;;;;8.05;6.22;;;13.80;99.90;;;;;;5053654;28;20033;-67
2021/10/31 11:05:37;;;;;;;7.85;5.03;;;13.90;99.90;;;;;;5059133;28;20052;-67
2021/10/31 11:08:09;;;;;;;8.25;5.57;;;14.00;99.90;;;;;;5057828;28;20040;-67
2021/10/31 11:10:35;;;;;;;7.03;5.07;;;14.10;99.90;;;;;;5055765;28;20048;-67
2021/10/31 11:13:05;;;;;;;8.68;4.18;;;14.30;99.90;;;;;;5057801;28;20052;-67
2021/10/31 11:15:34;;;;;;;5.45;4.82;;;14.30;99.90;;;;;;5055398;28;20491;-67
2021/10/31 11:18:06;;;;;;;6.95;4.32;;;14.40;99.90;;;;;;5054066;28;20047;-67
2021/10/31 11:20:35;;;;;;;7.82;4.38;;;14.40;99.90;;;;;;5058216;28;20047;-67
2021/10/31 11:23:06;;;;;;;7.63;4.43;;;14.50;99.90;;;;;;5055959;28;20040;-67
2021/10/31 11:25:34;;;;;;;4.78;3.15;;;14.70;99.90;;;;;;5056427;28;20115;-67
2021/10/31 11:28:02;;;;;;;6.65;3.95;;;14.90;99.90;;;;;;5053154;28;20048;-67
2021/10/31 11:30:30;;;;;;;8.75;3.80;;;15.00;99.90;;;;;;5057867;28;20509;-67
2021/10/31 11:32:57;;;;;;;5.80;3.28;;;15.10;99.90;;;;;;5057380;28;20093;-67
2021/10/31 11:35:24;;;;;;;4.40;3.60;;;15.10;99.90;;;;;;5055665;28;20605;-67
2021/10/31 11:38:00;;;;;;;5.82;3.67;;;15.20;99.90;;;;;;5057220;28;20032;-67
2021/10/31 11:40:39;;;;;;;8.77;3.90;;;15.20;99.90;;;;;;5055238;28;20466;-67
2021/10/31 11:43:16;;;;;;;4.13;3.30;;;15.10;99.90;;;;;;5053718;28;20048;-67
2021/10/31 11:45:44;;;;;;;6.15;3.50;;;15.10;99.90;;;;;;5055449;28;20041;-67
2021/10/31 11:48:18;;;;;;;5.07;2.72;;;15.00;99.90;;;;;;5087342;28;20040;-67
2021/10/31 11:51:06;;;;;;;4.57;2.67;;;15.00;99.90;;;;;;5054088;28;20056;-67
2021/10/31 11:53:47;;;;;;;3.40;3.00;;;14.90;99.90;;;;;;5054495;28;20044;-67
2021/10/31 11:56:27;;;;;;;4.95;2.67;;;14.80;99.90;;;;;;5057140;28;20120;-67
2021/10/31 11:59:08;;;;;;;7.35;3.85;;;14.80;99.90;;;;;;5055111;28;20029;-67
2021/10/31 12:01:40;;;;;;;4.47;3.33;;;14.70;99.90;;;;;;5058317;28;20175;-67
2021/10/31 12:04:30;;;;;;;8.30;3.85;;;14.60;99.90;;;;;;5054708;28;20047;-67
2021/10/31 12:06:56;;;;;;;5.80;3.80;;;14.60;99.90;;;;;;5070420;28;20547;-66
2021/10/31 12:09:26;;;;;;;5.35;2.80;;;14.60;99.90;;;;;;5057574;28;20040;-67
2021/10/31 12:11:55;;;;;;;4.70;3.10;;;14.50;99.90;;;;;;5051191;28;20090;-67
2021/10/31 12:14:42;;;;;;;9.45;3.20;;;14.50;99.90;;;;;;5053860;28;20048;-67
2021/10/31 12:17:08;;;;;;;5.07;3.15;;;14.50;99.90;;;;;;5055641;28;20036;-67
2021/10/31 12:19:41;;;;;;;3.72;3.25;;;14.40;99.90;;;;;;5054116;28;20036;-67
2021/10/31 12:22:10;;;;;;;4.55;3.28;;;14.40;99.90;;;;;;5072336;28;20048;-67
2021/10/31 12:24:41;;;;;;;4.43;2.97;;;14.30;99.90;;;;;;5057393;28;20094;-67
2021/10/31 12:27:20;;;;;;;6.53;3.30;;;14.30;99.90;;;;;;5056241;28;20568;-67
2021/10/31 12:30:29;;;;;;;4.13;3.47;;;14.30;99.90;;;;;;5055528;28;20076;-67
2021/10/31 12:33:03;;;;;;;8.00;3.08;;;14.20;99.90;;;;;;5070772;28;20059;-67
2021/10/31 12:35:43;;;;;;;6.30;3.20;;;14.20;99.90;;;;;;5056512;28;20053;-67
2021/10/31 12:38:22;;;;;;;5.97;3.30;;;14.20;99.90;;;;;;5054492;28;20493;-67
2021/10/31 12:41:18;;;;;;;3.83;3.42;;;14.10;99.90;;;;;;5054303;28;20044;-67
2021/10/31 12:43:46;;;;;;;4.50;2.43;;;14.00;99.90;;;;;;5056255;28;20052;-67